createdAt,value
2023-04-16T00:00:58.200Z,17.67
2023-04-16T00:04:59.960Z,14.23
2023-04-16T00:09:01.696Z,18.43
2023-04-16T00:13:03.379Z,14.57
2023-04-16T00:17:05.162Z,13.83
2023-04-16T00:21:07.606Z,16.20
2023-04-16T00:25:09.567Z,16.43
2023-04-16T00:29:11.418Z,16.33
2023-04-16T00:33:13.340Z,18.40
2023-04-16T00:37:15.109Z,18.87
2023-04-16T00:41:17.174Z,16.63
2023-04-16T00:45:19.017Z,16.10
2023-04-16T00:49:20.754Z,16.10
2023-04-16T00:53:22.581Z,18.10
2023-04-16T00:57:24.339Z,15.17
2023-04-16T01:01:27.398Z,15.37
2023-04-16T01:05:29.479Z,14.63
2023-04-16T01:09:31.302Z,16.40
2023-04-16T01:13:33.767Z,15.23
2023-04-16T01:17:35.542Z,14.67
2023-04-16T01:21:37.573Z,15.70
2023-04-16T01:25:39.552Z,14.27
2023-04-16T01:29:41.261Z,14.57
2023-04-16T01:33:43.041Z,15.93
2023-04-16T01:37:44.908Z,15.47
2023-04-16T01:41:46.625Z,15.93
2023-04-16T01:45:48.405Z,14.87
2023-04-16T01:49:50.151Z,16.30
2023-04-16T01:53:51.844Z,17.07
2023-04-16T01:57:53.708Z,18.00
2023-04-16T02:01:55.584Z,15.47
2023-04-16T02:05:57.469Z,14.50
2023-04-16T02:10:00.357Z,17.43
2023-04-16T02:14:02.176Z,16.60
2023-04-16T02:18:04.090Z,17.07
2023-04-16T02:22:06.001Z,13.70
2023-04-16T02:26:07.690Z,14.20
2023-04-16T02:30:10.668Z,15.20
2023-04-16T02:34:12.544Z,15.27
2023-04-16T02:38:14.260Z,15.67
2023-04-16T02:42:16.285Z,15.47
2023-04-16T02:46:18.015Z,12.90
2023-04-16T02:50:19.794Z,14.97
2023-04-16T02:54:21.442Z,15.23
2023-04-16T02:58:24.253Z,16.50
2023-04-16T03:02:26.609Z,16.10
2023-04-16T03:06:28.421Z,16.57
2023-04-16T03:10:30.132Z,16.87
2023-04-16T03:14:31.847Z,16.00
2023-04-16T03:18:33.521Z,16.60
2023-04-16T03:22:35.183Z,16.03
2023-04-16T03:26:36.999Z,17.67
2023-04-16T03:30:38.717Z,19.50
2023-04-16T03:34:40.436Z,18.37
2023-04-16T03:38:42.158Z,14.60
2023-04-16T03:42:43.811Z,16.27
2023-04-16T03:46:45.494Z,17.30
2023-04-16T03:50:49.953Z,16.73
2023-04-16T03:54:51.730Z,16.90
2023-04-16T03:58:53.525Z,16.50
2023-04-16T04:03:01.477Z,13.90
2023-04-16T04:07:03.347Z,16.17
2023-04-16T04:11:05.135Z,17.60
2023-04-16T04:15:07.358Z,14.83
2023-04-16T04:19:09.325Z,15.90
2023-04-16T04:23:11.202Z,16.93
2023-04-16T04:27:12.880Z,16.03
2023-04-16T04:31:14.546Z,16.60
2023-04-16T04:35:16.266Z,15.30
2023-04-16T04:39:18.261Z,15.10
2023-04-16T04:43:20.491Z,16.80
2023-04-16T04:47:22.187Z,17.37
2023-04-16T04:51:23.904Z,16.53
2023-04-16T04:55:25.680Z,14.90
2023-04-16T04:59:28.154Z,15.90
2023-04-16T05:03:29.865Z,15.57
2023-04-16T05:07:32.319Z,15.30
2023-04-16T05:11:34.256Z,15.93
2023-04-16T05:15:36.107Z,13.13
2023-04-16T05:19:37.798Z,14.53
2023-04-16T05:23:39.435Z,14.57
2023-04-16T05:27:41.252Z,13.67
2023-04-16T05:31:43.075Z,14.87
2023-04-16T05:35:44.729Z,15.93
2023-04-16T05:39:46.949Z,14.57
2023-04-16T05:43:48.610Z,14.20
2023-04-16T05:47:50.312Z,13.13
2023-04-16T05:52:01.570Z,13.83
2023-04-16T05:56:03.378Z,13.03
2023-04-16T06:00:05.793Z,12.77
2023-04-16T06:04:07.704Z,11.47
2023-04-16T06:08:09.516Z,10.90
2023-04-16T06:12:13.448Z,13.33
2023-04-16T06:16:15.459Z,12.00
2023-04-16T06:20:17.319Z,11.73
2023-04-16T06:24:19.448Z,13.97
2023-04-16T06:28:21.170Z,14.70
2023-04-16T06:32:23.003Z,13.43
2023-04-16T06:36:24.765Z,13.53
2023-04-16T06:40:26.517Z,14.10
2023-04-16T06:44:28.512Z,13.33
2023-04-16T06:48:30.368Z,17.13
2023-04-16T06:52:32.059Z,16.63
2023-04-16T06:56:36.238Z,16.90
2023-04-16T07:00:38.092Z,14.30
2023-04-16T07:04:44.550Z,13.60
2023-04-16T07:08:46.493Z,14.90
2023-04-16T07:12:48.642Z,14.67
2023-04-16T07:16:50.553Z,15.70
2023-04-16T07:20:57.669Z,14.07
2023-04-16T07:25:00.017Z,14.03
2023-04-16T07:29:01.955Z,13.83
2023-04-16T07:33:09.525Z,15.87
2023-04-16T07:37:11.336Z,12.43
2023-04-16T07:41:15.549Z,14.30
2023-04-16T07:45:18.368Z,13.17
2023-04-16T07:49:20.073Z,13.33
2023-04-16T07:53:21.855Z,13.07
2023-04-16T07:57:23.523Z,13.37
2023-04-16T08:01:25.572Z,12.63
2023-04-16T08:05:27.424Z,13.50
2023-04-16T08:09:31.496Z,14.40
2023-04-16T08:13:42.072Z,13.43
2023-04-16T08:17:47.094Z,12.90
2023-04-16T08:21:49.085Z,12.50
2023-04-16T08:25:52.935Z,14.53
2023-04-16T08:29:54.898Z,14.13
2023-04-16T08:33:56.865Z,14.83
2023-04-16T08:38:02.179Z,12.63
2023-04-16T08:42:28.960Z,13.80
2023-04-16T08:46:49.105Z,13.13
2023-04-16T08:50:52.553Z,14.07
2023-04-16T08:55:03.712Z,15.73
2023-04-16T08:59:05.855Z,14.97
2023-04-16T09:03:08.686Z,15.37
2023-04-16T09:07:14.978Z,16.33
2023-04-16T09:11:19.512Z,16.00
2023-04-16T09:15:21.329Z,14.80
2023-04-16T09:19:28.748Z,14.13
2023-04-16T09:23:33.464Z,14.57
2023-04-16T09:27:35.426Z,14.43
2023-04-16T09:31:38.416Z,13.67
2023-04-16T09:35:45.913Z,11.73
2023-04-16T09:39:55.626Z,12.03
2023-04-16T09:44:04.300Z,10.90
2023-04-16T09:48:10.680Z,10.47
2023-04-16T09:52:30.559Z,11.07
2023-04-16T09:56:42.568Z,10.30
2023-04-16T10:01:44.180Z,8.67
2023-04-16T10:06:01.169Z,7.63
2023-04-16T10:10:13.977Z,7.77
2023-04-16T10:14:18.769Z,8.33
2023-04-16T10:18:20.870Z,7.17
2023-04-16T10:22:29.846Z,7.80
2023-04-16T10:26:31.876Z,7.33
2023-04-16T10:30:33.849Z,5.83
2023-04-16T10:34:38.093Z,5.00
2023-04-16T10:38:41.332Z,5.60
2023-04-16T10:42:51.001Z,6.07
2023-04-16T10:46:53.176Z,5.50
2023-04-16T10:50:57.265Z,6.90
2023-04-16T10:55:08.566Z,6.13
2023-04-16T10:59:13.606Z,6.40
2023-04-16T11:03:19.548Z,6.60
2023-04-16T11:07:23.856Z,5.77
2023-04-16T11:11:25.752Z,5.80
2023-04-16T11:15:30.941Z,6.00
2023-04-16T11:19:32.822Z,5.60
2023-04-16T11:23:51.199Z,5.50
2023-04-16T11:27:53.263Z,4.10
2023-04-16T11:31:55.253Z,4.17
2023-04-16T11:36:00.927Z,3.90
2023-04-16T11:40:06.410Z,4.73
2023-04-16T11:44:30.516Z,3.67
2023-04-16T11:48:51.886Z,4.43
2023-04-16T11:52:54.973Z,4.30
2023-04-16T11:56:56.750Z,3.90
2023-04-16T12:01:01.396Z,4.10
2023-04-16T12:05:04.697Z,4.40
2023-04-16T12:09:25.725Z,4.40
2023-04-16T12:13:27.604Z,4.17
2023-04-16T12:17:43.314Z,3.90
2023-04-16T12:21:46.394Z,3.60
2023-04-16T12:25:50.132Z,3.20
2023-04-16T12:30:08.047Z,4.07
2023-04-16T12:34:10.584Z,3.83
2023-04-16T12:38:12.487Z,5.23
2023-04-16T12:42:14.969Z,6.80
2023-04-16T12:46:17.019Z,5.73
2023-04-16T12:50:21.505Z,5.13
2023-04-16T12:54:25.365Z,4.23
2023-04-16T12:58:31.468Z,4.17
2023-04-16T13:02:36.916Z,5.10
2023-04-16T13:06:39.627Z,5.03
2023-04-16T13:10:41.497Z,5.40
2023-04-16T13:14:45.130Z,4.40
2023-04-16T13:18:47.073Z,4.20
2023-04-16T13:22:48.802Z,5.23
2023-04-16T13:26:52.088Z,5.03
2023-04-16T13:30:54.261Z,4.47
2023-04-16T13:34:56.271Z,4.27
2023-04-16T13:39:00.706Z,5.43
2023-04-16T13:43:02.467Z,6.10
2023-04-16T13:47:04.301Z,5.73
2023-04-16T13:51:08.544Z,5.90
2023-04-16T13:55:15.675Z,6.57
2023-04-16T13:59:20.803Z,7.00
2023-04-16T14:03:25.879Z,6.80
2023-04-16T14:07:27.745Z,6.33
2023-04-16T14:11:29.573Z,6.20
2023-04-16T14:15:31.643Z,7.23
2023-04-16T14:19:36.820Z,7.00
2023-04-16T14:23:38.600Z,5.37
2023-04-16T14:27:43.237Z,6.27
2023-04-16T14:31:45.275Z,4.97
2023-04-16T14:35:47.566Z,5.30
2023-04-16T14:40:25.487Z,5.40
2023-04-16T14:44:27.421Z,4.83
2023-04-16T14:49:18.374Z,4.73
2023-04-16T14:53:20.573Z,5.40
2023-04-16T15:15:55.723Z,4.00
2023-04-16T15:19:59.653Z,3.40
2023-04-16T15:24:01.428Z,3.00
2023-04-16T15:28:08.524Z,3.07
2023-04-16T15:32:25.794Z,3.13
2023-04-16T15:36:54.821Z,3.13
2023-04-16T15:47:21.686Z,2.90
2023-04-16T15:51:33.968Z,3.43
2023-04-16T15:55:57.036Z,3.17
2023-04-16T16:05:47.930Z,2.77
2023-04-16T16:10:03.748Z,3.60
2023-04-16T16:14:05.814Z,3.40
2023-04-16T16:18:18.746Z,4.13
2023-04-16T16:37:35.418Z,3.90
2023-04-16T16:41:43.498Z,5.20
2023-04-16T16:45:50.805Z,3.67
2023-04-16T16:49:55.093Z,4.57
2023-04-16T16:53:56.912Z,4.73
2023-04-16T16:57:58.859Z,4.10
2023-04-16T17:02:02.057Z,3.60
2023-04-16T17:06:06.680Z,4.27
2023-04-16T17:10:11.445Z,3.40
2023-04-16T17:14:19.287Z,4.23
2023-04-16T17:18:42.420Z,3.57
2023-04-16T17:22:57.829Z,4.43
2023-04-16T17:27:04.312Z,3.90
2023-04-16T17:31:17.576Z,4.80
2023-04-16T17:35:19.551Z,4.33
2023-04-16T17:39:21.575Z,6.70
2023-04-16T17:43:27.972Z,7.63
2023-04-16T17:47:44.598Z,9.10
2023-04-16T17:52:05.142Z,10.17
2023-04-16T17:56:20.470Z,13.37
2023-04-16T18:00:24.698Z,12.60
2023-04-16T18:04:29.244Z,14.43
2023-04-16T18:08:46.416Z,14.47
2023-04-16T18:12:55.041Z,15.00
2023-04-16T18:17:27.970Z,16.63
2023-04-16T18:21:38.342Z,15.90
2023-04-16T18:30:34.427Z,16.30
2023-04-16T18:34:39.829Z,15.97
2023-04-16T18:38:59.320Z,15.03
2023-04-16T18:47:38.981Z,8.23
2023-04-16T18:51:42.147Z,8.33
2023-04-16T18:55:46.940Z,7.30
2023-04-16T18:59:49.420Z,8.93
2023-04-16T19:03:51.495Z,8.23
2023-04-16T19:08:02.538Z,7.00
2023-04-16T19:12:04.762Z,7.03
2023-04-16T19:16:11.440Z,5.97
2023-04-16T19:20:13.822Z,6.23
2023-04-16T19:24:15.882Z,7.10
2023-04-16T19:28:30.344Z,8.03
2023-04-16T19:32:33.816Z,5.53
2023-04-16T19:36:35.912Z,5.50
2023-04-16T19:40:38.549Z,6.70
2023-04-16T19:44:40.503Z,5.80
2023-04-16T19:48:42.316Z,6.10
2023-04-16T19:52:44.119Z,6.07
2023-04-16T19:56:51.950Z,5.70
2023-04-16T20:00:53.778Z,5.83
2023-04-16T20:04:55.718Z,7.13
2023-04-16T20:08:57.502Z,6.07
2023-04-16T20:13:10.101Z,5.73
2023-04-16T20:17:12.170Z,5.20
2023-04-16T20:21:16.036Z,5.20
2023-04-16T20:25:21.739Z,6.47
2023-04-16T20:29:38.581Z,5.37
2023-04-16T20:33:40.518Z,5.37
2023-04-16T20:37:43.067Z,5.50
2023-04-16T20:41:56.761Z,7.03
2023-04-16T20:46:07.817Z,5.93
2023-04-16T20:50:11.162Z,6.73
2023-04-16T20:54:13.104Z,6.27
2023-04-16T20:58:14.950Z,7.33
2023-04-16T21:02:20.331Z,8.30
2023-04-16T21:06:25.377Z,6.60
2023-04-16T21:10:27.339Z,7.90
2023-04-16T21:14:29.242Z,6.53
2023-04-16T21:18:31.009Z,6.87
2023-04-16T21:22:32.714Z,7.60
2023-04-16T21:26:34.522Z,7.47
2023-04-16T21:30:38.859Z,8.37
2023-04-16T21:34:40.870Z,6.83
2023-04-16T21:38:42.715Z,7.83
2023-04-16T21:42:44.614Z,7.60
2023-04-16T21:46:46.348Z,7.90
2023-04-16T21:50:53.777Z,7.83
2023-04-16T21:54:55.566Z,6.97
2023-04-16T21:58:57.250Z,7.83
2023-04-16T22:03:00.256Z,7.43
2023-04-16T22:07:03.274Z,8.13
2023-04-16T22:11:05.114Z,8.57
2023-04-16T22:15:07.334Z,9.20
2023-04-16T22:19:11.537Z,8.77
2023-04-16T22:23:14.316Z,8.80
2023-04-16T22:27:17.279Z,8.40
2023-04-16T22:31:18.950Z,9.90
2023-04-16T22:35:20.907Z,8.97
2023-04-16T22:39:23.294Z,9.40
2023-04-16T22:43:25.032Z,10.03
2023-04-16T22:47:26.818Z,10.60
2023-04-16T22:51:29.412Z,9.97
2023-04-16T22:55:31.183Z,10.50
2023-04-16T22:59:32.918Z,11.73
2023-04-16T23:03:34.856Z,10.53
2023-04-16T23:07:36.639Z,9.57
2023-04-16T23:11:38.480Z,10.00
2023-04-16T23:15:40.559Z,10.70
2023-04-16T23:19:42.292Z,13.53
2023-04-16T23:23:44.104Z,10.30
2023-04-16T23:27:45.936Z,11.20
2023-04-16T23:31:47.936Z,10.73
2023-04-16T23:35:49.663Z,9.23
2023-04-16T23:39:51.536Z,9.10
2023-04-16T23:43:53.299Z,10.30
2023-04-16T23:47:57.206Z,9.73
2023-04-16T23:51:58.989Z,9.07
2023-04-16T23:56:00.984Z,9.40
